This is the latest recevied weather packets stored in our database for station/object N5SRF. If no packets are shown the sender has not sent any weather packets the latest 10 day(s).
| Time | Temp. | Humidity | Pressure | Rain* | Wind** | Luminosity | Snow |
|---|---|---|---|---|---|---|---|
| 1777692189 | 11.67° C | 99% | 1020.7 hPa | 0 mm | - | 0 W/m² | - |
| 1777691887 | 11.67° C | 99% | 1020.4 hPa | 0 mm | - | 0 W/m² | - |
| 1777691585 | 12.22° C | 99% | 1020.3 hPa | 0 mm | - | 0 W/m² | - |
| 1777691283 | 12.22° C | 99% | 1020 hPa | 0 mm | - | 0 W/m² | - |
| 1777690980 | 12.22° C | 99% | 1019.8 hPa | 0 mm | - | 0 W/m² | - |
| 1777690678 | 12.22° C | 99% | 1019.5 hPa | 0 mm | - | 0 W/m² | - |
| 1777690376 | 12.22° C | 99% | 1019.4 hPa | 0 mm | - | 0 W/m² | - |
| 1777690073 | 12.22° C | 99% | 1019.7 hPa | 0 mm | - | 0 W/m² | - |
| 1777689770 | 12.22° C | 99% | 1019.6 hPa | 0 mm | - | 0 W/m² | - |
| 1777689469 | 12.22° C | 99% | 1019.8 hPa | 0 mm | - | 0 W/m² | - |
| 1777689166 | 12.22° C | 99% | 1019.8 hPa | 0 mm | - | 0 W/m² | - |
| 1777688864 | 12.22° C | 99% | 1019.6 hPa | 0 mm | - | 0 W/m² | - |
| 1777688257 | 12.22° C | 99% | 1019.4 hPa | 0 mm | - | 0 W/m² | - |
| 1777674318 | 13.33° C | 99% | 1017.3 hPa | 3.05 mm | - | 61 W/m² | - |
| 1777674015 | 13.89° C | 99% | 1017.5 hPa | 1.27 mm | - | 42 W/m² | - |
| 1777673107 | 13.89° C | 99% | 1016.4 hPa | 1.78 mm | - | 28 W/m² | - |
| 1777669161 | 14.44° C | 99% | 1015.6 hPa | 3.05 mm | - | 54 W/m² | - |
| 1777668858 | 14.44° C | 99% | 1015.8 hPa | 4.83 mm | - | 55 W/m² | - |
| 1777667947 | 14.44° C | 99% | 1015.6 hPa | 6.6 mm | - | 46 W/m² | - |
| 1777665825 | 14.44° C | 99% | 1015.2 hPa | 0 mm | - | 33 W/m² | - |
| 1777665524 | 14.44° C | 99% | 1015.5 hPa | 0 mm | - | 34 W/m² | - |
| 1777664606 | 14.44° C | 99% | 1015.1 hPa | 0 mm | - | 44 W/m² | - |
| 1777664001 | 14.44° C | 99% | 1014.8 hPa | 0 mm | - | 41 W/m² | - |
| 1777663698 | 14.44° C | 99% | 1015.3 hPa | 0 mm | - | 35 W/m² | - |
| 1777663092 | 14.44° C | 99% | 1014.7 hPa | 0 mm | - | 47 W/m² | - |
* Rain latest hour (hover to see other rain measurements)
** Current wind speed in m/s (hover to see current wind gust speed)